Time;durP1;ratioP1;P1;durP2;ratioP2;P2;SDS_P1;SDS_P2;PMS_P1;PMS_P2;Temp;Humidity;BMP_temperature;BMP_pressure;BME280_temperature;BME280_humidity;BME280_pressure;Samples;Min_cycle;Max_cycle;Signal;HPM_P1;HPM_P2
2022/12/12 00:01:47;;;;;;;11.30;7.80;;;;;;;-0.16;98.98;95944.05;107668;1269;69147;-67
2022/12/12 00:04:16;;;;;;;11.60;8.30;;;;;;;-0.19;99.18;95950.17;107655;1269;69379;-67
2022/12/12 00:06:46;;;;;;;11.90;8.50;;;;;;;-0.22;98.62;95960.27;107638;1270;59763;-67
2022/12/12 00:09:15;;;;;;;11.50;8.60;;;;;;;-0.23;98.68;95964.60;107685;1268;59723;-67
2022/12/12 00:11:44;;;;;;;11.40;8.30;;;;;;;-0.26;98.06;95966.99;107701;1268;71987;-67
2022/12/12 00:14:13;;;;;;;15.70;9.40;;;;;;;-0.31;98.41;95970.48;107739;1269;68385;-67
2022/12/12 00:16:43;;;;;;;11.60;8.00;;;;;;;-0.32;98.40;95974.50;107687;1269;69875;-67
2022/12/12 00:19:13;;;;;;;11.30;7.40;;;;;;;-0.34;99.19;95974.05;107673;1269;59774;-68
2022/12/12 00:21:42;;;;;;;13.30;6.80;;;;;;;-0.35;99.86;95979.27;107666;1269;59709;-67
2022/12/12 00:24:12;;;;;;;12.40;7.50;;;;;;;-0.33;99.41;95980.19;107738;1270;71957;-67
2022/12/12 00:26:42;;;;;;;9.40;6.30;;;;;;;-0.30;98.93;95983.27;107674;1265;67782;-67
2022/12/12 00:29:11;;;;;;;12.80;7.30;;;;;;;-0.26;98.41;95984.25;107683;1269;67567;-67
2022/12/12 00:31:40;;;;;;;12.80;8.40;;;;;;;-0.22;98.53;95989.39;107756;1270;59772;-67
2022/12/12 00:34:10;;;;;;;10.60;7.30;;;;;;;-0.21;98.64;95994.29;107760;1269;59706;-66
2022/12/12 00:36:39;;;;;;;10.80;7.30;;;;;;;-0.20;99.32;95996.98;107754;1265;71910;-66
2022/12/12 00:39:08;;;;;;;12.80;8.10;;;;;;;-0.18;99.12;95993.27;107715;1268;69178;-66
2022/12/12 00:41:46;;;;;;;11.30;7.20;;;;;;;-0.17;98.78;95993.71;107634;1269;69189;-67
2022/12/12 00:44:15;;;;;;;11.70;7.80;;;;;;;-0.14;98.44;95991.88;107602;1270;59771;-67
2022/12/12 00:46:44;;;;;;;10.60;7.70;;;;;;;-0.13;98.02;95989.08;107667;1269;59691;-66
2022/12/12 00:49:13;;;;;;;12.20;7.20;;;;;;;-0.12;97.86;95984.24;107632;1269;71987;-66
2022/12/12 00:51:43;;;;;;;10.60;7.70;;;;;;;-0.11;97.59;95988.30;107721;1272;69685;-67
2022/12/12 00:54:13;;;;;;;;;;;;;;;-0.12;97.95;95983.36;107718;1269;69321;-66
2022/12/12 00:56:43;;;;;;;11.10;7.90;;;;;;;-0.11;99.84;95984.98;107706;1267;59781;-66
2022/12/12 00:59:13;;;;;;;13.70;9.10;;;;;;;-0.09;100.00;95983.02;107687;1270;59798;-66
2022/12/12 01:01:43;;;;;;;;;;;;;;;-0.09;100.00;95983.20;107728;1269;69734;-66
2022/12/12 01:04:14;;;;;;;10.90;7.90;;;;;;;-0.09;100.00;95985.11;107689;1265;70247;-66
2022/12/12 01:06:44;;;;;;;15.00;9.40;;;;;;;-0.10;100.00;95977.91;107715;1268;69900;-66
2022/12/12 01:09:15;;;;;;;14.40;8.50;;;;;;;-0.10;100.00;95977.58;107678;1269;59732;-66
2022/12/12 01:11:45;;;;;;;12.50;8.00;;;;;;;-0.12;100.00;95978.72;107659;1269;60031;-67
2022/12/12 01:14:16;;;;;;;13.90;8.00;;;;;;;-0.12;100.00;95984.89;107664;1271;71494;-66
2022/12/12 01:16:46;;;;;;;13.80;8.70;;;;;;;-0.13;100.00;95982.92;107654;1269;67597;-67
2022/12/12 01:19:18;;;;;;;15.60;8.80;;;;;;;-0.14;100.00;95983.29;107625;1269;67449;-66
2022/12/12 01:21:48;;;;;;;11.90;8.00;;;;;;;-0.12;100.00;95987.12;107662;1269;59871;-66
2022/12/12 01:24:18;;;;;;;14.30;8.60;;;;;;;-0.11;100.00;95985.56;107649;1269;59693;-67
2022/12/12 01:26:50;;;;;;;15.00;9.00;;;;;;;-0.12;99.77;95985.39;107625;1269;70711;-66
2022/12/12 01:29:22;;;;;;;14.10;9.10;;;;;;;-0.13;99.84;95990.80;107677;1268;68880;-68
2022/12/12 01:31:53;;;;;;;14.70;9.20;;;;;;;-0.16;99.97;95993.18;107769;1269;69376;-66
2022/12/12 01:34:23;;;;;;;15.90;10.40;;;;;;;-0.19;100.00;95986.48;107700;1270;59757;-67
2022/12/12 01:36:53;;;;;;;;;;;;;;;-0.23;100.00;95973.35;107668;1269;59696;-67
2022/12/12 01:39:22;;;;;;;15.80;9.60;;;;;;;-0.25;100.00;95976.02;107691;1271;70644;-66
2022/12/12 01:41:52;;;;;;;15.70;10.80;;;;;;;-0.29;100.00;95976.73;107666;1270;69233;-66
2022/12/12 01:44:42;;;;;;;16.30;10.20;;;;;;;-0.32;100.00;95975.36;107656;1269;69149;-67
2022/12/12 01:47:15;;;;;;;17.50;11.60;;;;;;;-0.33;100.00;95980.19;107671;1269;59763;-66
2022/12/12 01:50:07;;;;;;;15.30;10.10;;;;;;;-0.35;100.00;95985.23;107681;1269;59701;-66
2022/12/12 01:52:43;;;;;;;15.70;9.90;;;;;;;-0.37;100.00;95989.13;107664;1266;71422;-66
2022/12/12 01:55:22;;;;;;;15.00;9.90;;;;;;;-0.39;100.00;95984.92;107703;1270;68415;-67
2022/12/12 01:57:54;;;;;;;16.30;10.70;;;;;;;-0.36;100.00;95981.73;107677;1269;68281;-66
2022/12/12 02:00:24;;;;;;;19.90;12.00;;;;;;;-0.36;100.00;95982.74;107656;1270;59691;-67
2022/12/12 02:02:55;;;;;;;17.60;10.70;;;;;;;-0.38;100.00;95983.55;107697;1269;59757;-67
2022/12/12 02:05:37;;;;;;;17.90;10.20;;;;;;;-0.41;100.00;95991.39;107687;1269;71441;-67
2022/12/12 02:08:09;;;;;;;15.90;9.90;;;;;;;-0.47;100.00;95989.48;107656;1270;69218;-67
2022/12/12 02:10:39;;;;;;;18.00;10.80;;;;;;;-0.46;100.00;95985.16;107691;1270;69739;-66
2022/12/12 02:13:14;;;;;;;18.10;10.70;;;;;;;-0.49;100.00;95985.50;107661;1270;59694;-66
2022/12/12 02:16:00;;;;;;;16.40;10.50;;;;;;;-0.50;100.00;95995.80;107682;1270;59705;-68
2022/12/12 02:18:37;;;;;;;18.30;11.60;;;;;;;-0.52;100.00;96003.06;107658;1268;70632;-67
2022/12/12 02:21:35;;;;;;;20.30;11.90;;;;;;;-0.52;100.00;96001.36;107636;1270;69172;-67
2022/12/12 02:24:26;;;;;;;16.70;10.80;;;;;;;-0.54;100.00;95994.59;107416;1268;69298;-66
2022/12/12 02:27:49;;;;;;;14.00;8.80;;;;;;;-0.51;100.00;95991.06;107443;1270;59795;-66
2022/12/12 02:30:31;;;;;;;17.00;10.10;;;;;;;-0.47;100.00;95989.98;107274;1272;59707;-66
2022/12/12 02:33:29;;;;;;;17.40;9.60;;;;;;;-0.45;100.00;95991.60;107663;1270;70442;-67
2022/12/12 02:36:11;;;;;;;17.00;10.80;;;;;;;-0.43;100.00;95987.56;107589;1270;69197;-68
2022/12/12 02:38:49;;;;;;;18.80;10.80;;;;;;;-0.43;100.00;95986.85;107542;1271;68659;-68
2022/12/12 02:41:34;;;;;;;18.20;11.00;;;;;;;-0.43;100.00;95990.14;107502;1266;59760;-68
2022/12/12 02:44:11;;;;;;;16.60;10.90;;;;;;;-0.43;100.00;95984.98;107499;1271;59688;-67
2022/12/12 02:46:59;;;;;;;20.00;11.40;;;;;;;-0.44;100.00;95990.16;107636;1268;71387;-66
2022/12/12 02:49:43;;;;;;;17.10;10.50;;;;;;;-0.44;100.00;96002.48;107485;1270;69215;-66
2022/12/12 02:52:15;;;;;;;16.20;11.10;;;;;;;-0.46;100.00;96012.72;107472;1266;69116;-67
2022/12/12 02:54:45;;;;;;;16.90;10.80;;;;;;;-0.49;100.00;96012.05;107566;1270;59786;-68
2022/12/12 02:57:24;;;;;;;20.70;11.50;;;;;;;-0.50;100.00;96012.76;107505;1271;59717;-66
2022/12/12 02:59:57;;;;;;;18.80;10.70;;;;;;;-0.51;100.00;96008.86;107585;1271;71603;-66
2022/12/12 03:09:03;;;;;;;18.50;10.40;;;;;;;-0.48;100.00;96014.85;107500;1266;59779;-66
2022/12/12 03:11:36;;;;;;;;;;;;;;;-0.47;100.00;96011.23;107595;1270;59802;-66
2022/12/12 03:14:15;;;;;;;16.90;10.00;;;;;;;-0.46;100.00;96009.98;107552;1270;70668;-66
2022/12/12 03:17:21;;;;;;;14.80;9.50;;;;;;;-0.46;100.00;96008.94;107403;1270;68191;-66
2022/12/12 03:20:12;;;;;;;18.00;10.30;;;;;;;-0.46;100.00;96016.14;107577;1266;69283;-66
2022/12/12 03:22:51;;;;;;;16.70;9.40;;;;;;;-0.48;100.00;96018.29;107700;1261;59771;-68
2022/12/12 03:25:37;;;;;;;13.40;9.00;;;;;;;-0.48;100.00;96013.52;107693;1269;59706;-65
2022/12/12 03:28:17;;;;;;;14.70;9.30;;;;;;;-0.45;100.00;96014.56;107695;1270;71505;-66
2022/12/12 03:30:55;;;;;;;14.30;8.80;;;;;;;-0.45;100.00;96018.66;107684;1266;69231;-66
2022/12/12 03:33:55;;;;;;;13.70;9.00;;;;;;;-0.46;100.00;96020.40;107667;1269;69110;-66
2022/12/12 03:36:37;;;;;;;16.10;8.70;;;;;;;-0.45;100.00;96018.67;107632;1266;59980;-66
2022/12/12 03:39:17;;;;;;;11.50;7.00;;;;;;;-0.46;98.04;96012.73;107647;1270;59713;-66
2022/12/12 03:41:55;;;;;;;8.70;6.30;;;;;;;-0.43;97.77;96006.02;107705;1270;71436;-66
2022/12/12 03:44:36;;;;;;;10.80;6.70;;;;;;;-0.41;96.00;96005.59;107701;1268;68934;-66
2022/12/12 03:47:15;;;;;;;12.10;7.70;;;;;;;-0.38;95.58;96005.46;107722;1266;68790;-66
2022/12/12 03:49:54;;;;;;;13.70;8.90;;;;;;;-0.39;95.67;96001.73;107720;1268;59832;-66
2022/12/12 03:52:34;;;;;;;11.00;7.40;;;;;;;-0.42;95.98;96002.23;107729;1269;59739;-66
2022/12/12 03:55:11;;;;;;;;;;;;;;;-0.40;96.62;95997.98;107658;1273;71448;-66
2022/12/12 03:58:04;;;;;;;12.70;7.60;;;;;;;-0.40;96.26;95998.20;107707;1270;69154;-66
2022/12/12 04:00:36;;;;;;;10.60;7.10;;;;;;;-0.42;96.29;96006.36;107685;1270;69269;-67
2022/12/12 04:03:14;;;;;;;9.80;6.70;;;;;;;-0.42;96.26;96015.73;107629;1266;59840;-66
2022/12/12 04:06:25;;;;;;;12.30;7.20;;;;;;;-0.40;96.35;96018.20;107685;1270;59764;-67
2022/12/12 04:15:24;;;;;;;14.40;9.00;;;;;;;-0.46;97.17;96029.14;107697;1270;69443;-68
2022/12/12 04:18:20;;;;;;;14.00;8.30;;;;;;;-0.50;97.36;96025.23;107672;1268;59636;-66
2022/12/12 04:24:19;;;;;;;11.70;7.00;;;;;;;-0.46;97.82;96012.69;107577;1270;71383;-66
2022/12/12 04:27:00;;;;;;;15.50;8.60;;;;;;;-0.43;99.01;96008.94;107498;1270;68457;-67
2022/12/12 04:29:38;;;;;;;12.50;8.00;;;;;;;-0.41;98.96;96013.14;107427;1272;68323;-67
2022/12/12 04:32:11;;;;;;;14.20;8.70;;;;;;;-0.43;98.93;96019.92;107484;1270;59730;-67
2022/12/12 04:34:53;;;;;;;13.00;8.40;;;;;;;-0.42;98.26;96025.50;107486;1270;59699;-67
2022/12/12 04:37:31;;;;;;;15.80;9.80;;;;;;;-0.46;97.78;96034.44;107589;1266;71258;-67
2022/12/12 04:40:06;;;;;;;17.00;9.00;;;;;;;-0.47;97.70;96035.52;107596;1270;69307;-67
2022/12/12 04:42:40;;;;;;;17.10;9.40;;;;;;;-0.51;98.59;96041.71;107599;1270;68534;-67
2022/12/12 04:45:15;;;;;;;15.00;9.80;;;;;;;-0.53;98.90;96049.81;107642;1270;59735;-67
2022/12/12 04:47:49;;;;;;;18.90;11.20;;;;;;;-0.55;98.81;96057.13;107622;1266;59655;-67
2022/12/12 04:50:22;;;;;;;22.30;13.60;;;;;;;-0.55;98.16;96054.73;107641;1270;70462;-67
2022/12/12 04:52:55;;;;;;;42.70;20.10;;;;;;;-0.56;98.33;96059.77;107490;1270;68407;-67
2022/12/12 04:55:35;;;;;;;34.70;20.00;;;;;;;-0.56;98.30;96056.82;107484;1270;68434;-66
2022/12/12 04:58:06;;;;;;;18.40;11.20;;;;;;;-0.58;98.04;96058.46;107504;1267;59735;-67
2022/12/12 05:00:46;;;;;;;29.70;16.90;;;;;;;-0.61;98.02;96059.67;107421;1266;59712;-67
2022/12/12 05:03:35;;;;;;;51.20;22.70;;;;;;;-0.61;97.56;96058.12;107418;1266;71955;-66
2022/12/12 05:06:10;;;;;;;32.10;14.70;;;;;;;-0.61;97.56;96048.55;107483;1270;69151;-66
2022/12/12 05:08:43;;;;;;;18.80;10.60;;;;;;;-0.58;98.24;96047.38;107620;1270;70289;-66
2022/12/12 05:11:13;;;;;;;17.10;9.80;;;;;;;-0.56;98.10;96048.95;107465;1266;60185;-67
2022/12/12 05:13:43;;;;;;;13.40;8.80;;;;;;;-0.54;97.73;96047.16;107593;1270;59741;-66
2022/12/12 05:16:25;;;;;;;;;;;;;;;-0.53;97.35;96044.21;107629;1270;71774;-66
2022/12/12 05:18:55;;;;;;;15.70;8.70;;;;;;;-0.54;96.94;96048.51;107539;1270;69877;-66
2022/12/12 05:21:24;;;;;;;16.10;9.30;;;;;;;-0.56;96.52;96051.73;107467;1270;69915;-66
2022/12/12 05:23:53;;;;;;;18.30;9.60;;;;;;;-0.60;97.17;96058.06;107728;1270;59759;-66
2022/12/12 05:26:26;;;;;;;14.80;9.90;;;;;;;-0.61;97.15;96062.38;107644;1269;59681;-66
2022/12/12 05:28:56;;;;;;;15.10;8.40;;;;;;;-0.63;98.66;96071.57;107642;1268;71738;-66
2022/12/12 05:31:35;;;;;;;12.70;7.90;;;;;;;-0.60;99.16;96068.00;107611;1268;69176;-66
2022/12/12 05:34:04;;;;;;;10.70;7.40;;;;;;;-0.56;99.24;96061.30;107640;1270;69901;-66
2022/12/12 05:36:33;;;;;;;12.90;8.30;;;;;;;-0.54;99.86;96057.93;107615;1268;59694;-66
2022/12/12 05:39:03;;;;;;;15.90;9.40;;;;;;;-0.50;99.86;96058.78;107630;1270;59666;-66
2022/12/12 05:41:32;;;;;;;15.30;9.20;;;;;;;-0.47;100.00;96058.30;107740;1266;72170;-66
2022/12/12 05:44:01;;;;;;;14.40;8.70;;;;;;;-0.45;99.94;96061.80;107706;1270;69169;-66
2022/12/12 05:46:31;;;;;;;10.90;7.10;;;;;;;-0.42;99.78;96063.88;107727;1268;69188;-66
2022/12/12 05:49:00;;;;;;;14.50;8.30;;;;;;;-0.41;98.56;96077.85;107715;1269;59721;-66
2022/12/12 05:51:29;;;;;;;14.40;7.80;;;;;;;-0.40;97.44;96084.66;107745;1269;60151;-66
2022/12/12 05:54:00;;;;;;;11.80;7.90;;;;;;;-0.39;97.09;96089.05;107747;1269;71509;-66
2022/12/12 05:56:29;;;;;;;11.60;6.80;;;;;;;-0.40;96.82;96090.95;107700;1266;69856;-66
2022/12/12 05:58:58;;;;;;;13.10;8.40;;;;;;;-0.37;97.00;96097.84;107727;1266;69928;-66
2022/12/12 06:01:27;;;;;;;11.70;7.00;;;;;;;-0.36;97.13;96099.65;107697;1269;59692;-66
2022/12/12 06:03:56;;;;;;;11.90;7.60;;;;;;;-0.34;97.33;96103.83;107743;1267;59793;-67
2022/12/12 06:06:26;;;;;;;12.40;6.60;;;;;;;-0.31;97.44;96105.92;107755;1265;71978;-66
2022/12/12 06:08:54;;;;;;;12.40;6.80;;;;;;;-0.30;97.63;96100.52;107719;1268;69198;-66
2022/12/12 06:11:24;;;;;;;13.00;6.70;;;;;;;-0.27;97.62;96108.82;107708;1268;69903;-66
2022/12/12 06:13:52;;;;;;;10.60;6.10;;;;;;;-0.27;97.39;96124.39;107736;1269;59705;-66
2022/12/12 06:16:21;;;;;;;17.20;9.20;;;;;;;-0.30;97.56;96128.29;107693;1268;59773;-66
2022/12/12 06:18:52;;;;;;;17.40;8.00;;;;;;;-0.33;95.79;96127.74;107690;1269;72004;-66
2022/12/12 06:21:22;;;;;;;15.90;9.00;;;;;;;-0.35;93.74;96136.59;107707;1270;69891;-66
2022/12/12 06:23:51;;;;;;;18.20;9.10;;;;;;;-0.34;94.63;96144.27;107645;1270;68303;-66
2022/12/12 06:26:21;;;;;;;16.90;9.00;;;;;;;-0.38;94.94;96140.83;107647;1270;59773;-66
2022/12/12 06:28:50;;;;;;;17.70;9.40;;;;;;;-0.40;95.43;96139.27;107772;1270;59801;-66
2022/12/12 06:31:19;;;;;;;13.90;8.80;;;;;;;-0.42;95.75;96145.51;107751;1266;71678;-66
2022/12/12 06:33:48;;;;;;;18.90;11.30;;;;;;;-0.43;96.48;96147.60;107712;1269;69168;-65
2022/12/12 06:36:23;;;;;;;13.40;8.80;;;;;;;-0.42;96.07;96143.95;107741;1270;69819;-66
2022/12/12 06:38:54;;;;;;;18.50;9.90;;;;;;;-0.41;96.07;96144.92;107698;1270;59775;-66
2022/12/12 06:41:25;;;;;;;14.40;9.00;;;;;;;-0.40;96.70;96145.58;107749;1269;59765;-66
2022/12/12 06:43:57;;;;;;;16.00;9.90;;;;;;;-0.38;97.03;96147.67;107718;1270;72019;-66
2022/12/12 06:46:27;;;;;;;19.30;9.90;;;;;;;-0.36;96.97;96146.41;107627;1265;68737;-66
2022/12/12 06:48:56;;;;;;;14.70;8.80;;;;;;;-0.35;96.56;96148.73;107670;1266;70014;-65
2022/12/12 06:51:30;;;;;;;19.40;9.60;;;;;;;-0.34;96.14;96152.96;107683;1266;59800;-65
2022/12/12 06:53:59;;;;;;;17.00;9.70;;;;;;;-0.34;95.68;96157.96;107728;1269;59777;-65
2022/12/12 06:56:28;;;;;;;15.40;10.10;;;;;;;-0.35;95.48;96161.59;107713;1270;70381;-65
2022/12/12 06:58:58;;;;;;;18.90;10.10;;;;;;;-0.38;95.03;96159.15;107735;1266;69819;-65
2022/12/12 07:01:27;;;;;;;16.20;9.90;;;;;;;-0.43;94.81;96156.50;107720;1266;69897;-66
2022/12/12 07:03:57;;;;;;;15.60;9.80;;;;;;;-0.46;94.72;96162.65;107615;1270;59808;-65
2022/12/12 07:06:26;;;;;;;16.80;9.10;;;;;;;-0.48;94.59;96157.45;107710;1267;59725;-65
2022/12/12 07:08:58;;;;;;;16.30;8.10;;;;;;;-0.47;94.70;96158.79;107688;1267;72014;-65
2022/12/12 07:11:26;;;;;;;14.00;8.00;;;;;;;-0.45;94.88;96157.11;107682;1269;69171;-65
2022/12/12 07:13:56;;;;;;;18.10;9.70;;;;;;;-0.41;95.69;96156.59;107603;1270;70373;-66
2022/12/12 07:16:25;;;;;;;18.50;8.80;;;;;;;-0.40;95.86;96152.79;107673;1270;59782;-66
2022/12/12 07:18:54;;;;;;;14.80;8.60;;;;;;;-0.42;95.15;96155.61;107645;1266;59665;-66
2022/12/12 07:21:24;;;;;;;16.20;9.50;;;;;;;-0.41;95.64;96158.98;107607;1270;71018;-66
2022/12/12 07:23:54;;;;;;;18.60;9.70;;;;;;;-0.39;96.95;96162.64;107641;1268;69720;-66
2022/12/12 07:26:24;;;;;;;18.80;10.20;;;;;;;-0.38;96.41;96159.83;107713;1264;69929;-67
2022/12/12 07:28:53;;;;;;;18.10;10.00;;;;;;;-0.38;96.29;96167.19;107858;1266;59767;-66
2022/12/12 07:31:24;;;;;;;17.00;9.80;;;;;;;-0.37;95.88;96170.42;107758;1270;59702;-65
2022/12/12 07:33:54;;;;;;;17.40;9.90;;;;;;;-0.35;95.77;96176.16;107725;1268;71094;-65
2022/12/12 07:36:23;;;;;;;18.50;9.90;;;;;;;-0.34;95.84;96177.11;107741;1266;69578;-66
2022/12/12 07:38:51;;;;;;;18.20;10.80;;;;;;;-0.34;95.49;96184.13;107668;1265;69167;-66
2022/12/12 07:41:20;;;;;;;19.50;11.10;;;;;;;-0.36;95.41;96188.02;107679;1269;59789;-66
2022/12/12 07:43:51;;;;;;;22.20;11.50;;;;;;;-0.37;96.40;96192.16;107667;1265;59837;-65
2022/12/12 07:46:23;;;;;;;21.10;10.70;;;;;;;-0.35;96.06;96193.43;107708;1266;70628;-65
2022/12/12 07:48:53;;;;;;;23.80;11.70;;;;;;;-0.33;96.68;96189.58;107754;1266;69144;-66
2022/12/12 07:51:22;;;;;;;24.60;12.50;;;;;;;-0.30;96.44;96192.15;107719;1269;69932;-65
2022/12/12 07:53:50;;;;;;;19.90;11.60;;;;;;;-0.31;96.04;96197.19;107658;1266;59779;-66
2022/12/12 07:56:19;;;;;;;24.50;12.50;;;;;;;-0.31;96.07;96200.09;107776;1268;59738;-66
2022/12/12 07:58:48;;;;;;;22.50;12.70;;;;;;;-0.31;96.64;96205.55;107789;1260;72020;-66
2022/12/12 08:01:26;;;;;;;20.70;11.50;;;;;;;-0.29;96.57;96205.98;107729;1266;69627;-65
2022/12/12 08:03:55;;;;;;;22.40;12.20;;;;;;;-0.25;97.27;96205.79;107718;1264;69966;-66
2022/12/12 08:06:24;;;;;;;17.00;9.80;;;;;;;-0.20;97.22;96210.02;107626;1271;59731;-65
2022/12/12 08:08:53;;;;;;;15.70;10.40;;;;;;;-0.14;97.15;96210.90;107687;1269;59632;-66
2022/12/12 08:11:24;;;;;;;15.40;8.10;;;;;;;-0.08;97.16;96211.45;107637;1267;71992;-65
2022/12/12 08:13:53;;;;;;;18.20;11.30;;;;;;;-0.06;96.70;96210.30;107627;1269;69792;-65
2022/12/12 08:16:24;;;;;;;;;;;;;;;-0.05;96.39;96212.16;107607;1266;69401;-66
2022/12/12 08:18:57;;;;;;;19.70;9.90;;;;;;;-0.05;96.29;96211.27;107596;1269;59709;-66
2022/12/12 08:21:26;;;;;;;20.30;11.20;;;;;;;-0.06;96.99;96214.40;107638;1269;60081;-65
2022/12/12 08:24:00;;;;;;;17.60;10.60;;;;;;;-0.04;96.82;96218.10;107648;1269;72121;-65
2022/12/12 08:26:31;;;;;;;20.50;10.80;;;;;;;-0.01;96.71;96220.02;107628;1269;69243;-65
2022/12/12 08:28:59;;;;;;;16.60;10.50;;;;;;;-0.01;96.59;96219.16;107543;1269;69139;-66
2022/12/12 08:31:29;;;;;;;21.10;10.60;;;;;;;0.02;96.18;96216.29;107554;1266;59702;-65
2022/12/12 08:33:59;;;;;;;22.20;12.40;;;;;;;0.07;96.31;96218.91;107582;1270;59740;-66
2022/12/12 08:36:33;;;;;;;22.30;11.90;;;;;;;0.10;95.90;96223.08;107631;1269;71888;-66
2022/12/12 08:39:08;;;;;;;22.40;12.30;;;;;;;0.03;95.20;96226.14;107628;1269;69226;-65
2022/12/12 08:41:40;;;;;;;21.10;11.20;;;;;;;0.02;95.46;96229.48;107556;1269;69927;-65
2022/12/12 08:44:11;;;;;;;20.00;11.20;;;;;;;-0.06;96.22;96229.31;107565;1268;59741;-64
2022/12/12 08:46:40;;;;;;;24.50;11.70;;;;;;;-0.06;96.72;96232.41;107600;1269;59695;-64
2022/12/12 08:49:10;;;;;;;;;;;;;;;-0.00;97.35;96233.66;107690;1269;71717;-65
2022/12/12 08:51:41;;;;;;;21.40;12.20;;;;;;;0.07;97.71;96233.16;107660;1269;69151;-65
2022/12/12 08:54:12;;;;;;;18.70;10.30;;;;;;;0.11;96.88;96234.66;107659;1269;69912;-65
2022/12/12 08:56:41;;;;;;;19.10;11.40;;;;;;;0.13;96.65;96235.59;107630;1266;59781;-65
2022/12/12 08:59:10;;;;;;;24.90;13.50;;;;;;;0.15;96.28;96229.84;107651;1267;59725;-65
2022/12/12 09:01:39;;;;;;;20.00;11.20;;;;;;;0.18;96.10;96227.13;107629;1266;71315;-65
2022/12/12 09:04:08;;;;;;;22.10;12.30;;;;;;;0.24;96.30;96226.61;107647;1269;69869;-65
2022/12/12 09:06:37;;;;;;;24.20;12.80;;;;;;;0.27;96.23;96226.30;107596;1269;70088;-65
2022/12/12 09:09:06;;;;;;;26.60;14.00;;;;;;;0.31;96.58;96224.05;107637;1269;59765;-65
2022/12/12 09:11:35;;;;;;;20.90;12.30;;;;;;;0.35;96.14;96221.45;107663;1267;59664;-66
2022/12/12 09:14:04;;;;;;;23.20;12.00;;;;;;;0.42;96.23;96221.76;107692;1270;72126;-65
2022/12/12 09:16:32;;;;;;;16.60;10.50;;;;;;;0.51;95.93;96220.47;107658;1266;69197;-66
2022/12/12 09:19:02;;;;;;;23.30;13.60;;;;;;;0.58;95.84;96223.34;107658;1269;68941;-65
2022/12/12 09:21:31;;;;;;;20.20;13.20;;;;;;;0.62;95.80;96220.08;107699;1269;59775;-66
2022/12/12 09:24:01;;;;;;;23.30;14.20;;;;;;;0.68;95.77;96221.27;107598;1266;59736;-65
2022/12/12 09:26:30;;;;;;;21.60;13.30;;;;;;;0.79;95.32;96222.11;107648;1266;71395;-65
2022/12/12 09:28:59;;;;;;;21.90;12.60;;;;;;;0.88;95.29;96220.08;107572;1269;68321;-66
2022/12/12 09:31:28;;;;;;;27.70;15.80;;;;;;;0.94;94.76;96220.73;107597;1269;69328;-66
2022/12/12 09:33:57;;;;;;;23.20;14.50;;;;;;;0.98;95.16;96221.25;107564;1269;60207;-66
2022/12/12 09:36:26;;;;;;;20.90;12.40;;;;;;;1.02;94.48;96225.69;107631;1269;59681;-66
2022/12/12 09:38:55;;;;;;;25.20;14.90;;;;;;;1.13;94.54;96221.30;107592;1266;71780;-65
2022/12/12 09:41:26;;;;;;;23.40;13.40;;;;;;;1.17;94.67;96225.39;107590;1263;69579;-65
2022/12/12 09:44:17;;;;;;;27.00;15.20;;;;;;;1.17;94.04;96224.65;107585;1269;69254;-64
2022/12/12 09:46:50;;;;;;;22.00;13.40;;;;;;;1.14;94.14;96226.55;107598;1269;59782;-66
2022/12/12 09:49:35;;;;;;;25.70;16.50;;;;;;;1.15;94.57;96224.77;107534;1269;59723;-65
2022/12/12 09:52:21;;;;;;;30.80;18.50;;;;;;;1.16;94.06;96219.39;107594;1265;72381;-65
2022/12/12 09:55:01;;;;;;;25.10;14.50;;;;;;;1.14;93.88;96221.07;107607;1265;69235;-64
2022/12/12 09:57:33;;;;;;;23.70;14.00;;;;;;;1.11;94.48;96219.51;107598;1269;69277;-65
2022/12/12 10:00:04;;;;;;;22.30;15.20;;;;;;;1.18;94.37;96212.23;107608;1269;59770;-64
2022/12/12 10:02:39;;;;;;;22.80;14.00;;;;;;;1.26;94.19;96210.66;107587;1269;59695;-65
2022/12/12 10:05:29;;;;;;;24.60;13.40;;;;;;;1.29;94.04;96207.17;107630;1267;72018;-65
2022/12/12 10:08:28;;;;;;;20.70;11.30;;;;;;;1.35;94.03;96210.12;107608;1269;69193;-65
2022/12/12 10:11:03;;;;;;;22.10;13.20;;;;;;;1.39;93.12;96207.86;107482;1266;68742;-66
2022/12/12 10:13:35;;;;;;;22.70;14.20;;;;;;;1.35;92.55;96206.04;107641;1269;59745;-65
2022/12/12 10:16:08;;;;;;;21.20;12.50;;;;;;;1.29;92.68;96209.79;107648;1269;59773;-65
2022/12/12 10:18:42;;;;;;;19.10;12.40;;;;;;;1.23;92.21;96218.33;107624;1266;71879;-65
2022/12/12 10:21:21;;;;;;;17.40;11.50;;;;;;;1.18;92.50;96213.98;107637;1269;69828;-65
2022/12/12 10:24:00;;;;;;;21.80;11.60;;;;;;;1.18;92.89;96215.38;107252;1265;405998;-65
2022/12/12 10:26:32;;;;;;;18.10;11.40;;;;;;;1.20;93.03;96213.34;107551;1266;59712;-65
2022/12/12 10:29:21;;;;;;;20.20;12.30;;;;;;;1.22;92.99;96212.23;107577;1269;59787;-64
2022/12/12 10:32:18;;;;;;;20.50;12.20;;;;;;;1.24;92.97;96206.95;107588;1269;71420;-65
2022/12/12 10:35:05;;;;;;;17.30;11.10;;;;;;;1.25;92.46;96202.13;107649;1267;69837;-66
2022/12/12 10:37:56;;;;;;;20.70;12.70;;;;;;;1.21;92.17;96198.91;107620;1269;69178;-66
2022/12/12 10:40:43;;;;;;;20.40;12.70;;;;;;;1.18;92.14;96199.21;107639;1269;59802;-66
2022/12/12 10:43:21;;;;;;;24.30;13.30;;;;;;;1.15;92.67;96197.66;107607;1269;60120;-66
2022/12/12 10:46:15;;;;;;;20.00;11.40;;;;;;;1.16;92.59;96201.23;107641;1269;72002;-66
2022/12/12 10:48:46;;;;;;;27.80;16.10;;;;;;;1.17;92.57;96197.89;107569;1269;69243;-65
2022/12/12 10:51:17;;;;;;;28.00;17.40;;;;;;;1.20;92.73;96196.21;107630;1266;69722;-66
2022/12/12 10:53:47;;;;;;;18.80;12.10;;;;;;;1.21;92.86;96193.92;107642;1269;59793;-64
2022/12/12 10:56:27;;;;;;;17.20;10.40;;;;;;;1.27;92.89;96191.35;107656;1269;59717;-64
2022/12/12 10:58:58;;;;;;;18.80;10.40;;;;;;;1.36;92.75;96190.48;107634;1270;70500;-64
2022/12/12 11:01:36;;;;;;;18.10;10.30;;;;;;;1.39;92.20;96193.44;107609;1266;69016;-64
2022/12/12 11:04:27;;;;;;;16.60;9.70;;;;;;;1.44;92.00;96196.59;107578;1265;69630;-65
2022/12/12 11:06:56;;;;;;;15.40;10.20;;;;;;;1.47;91.66;96197.63;107591;1265;59787;-65
2022/12/12 11:09:27;;;;;;;16.10;11.10;;;;;;;1.44;91.45;96196.23;107633;1266;59675;-65
2022/12/12 11:12:16;;;;;;;17.30;10.90;;;;;;;1.42;91.17;96196.16;107632;1266;72024;-65
2022/12/12 11:14:52;;;;;;;13.70;10.30;;;;;;;1.41;91.35;96204.00;107634;1267;69177;-65
2022/12/12 11:17:29;;;;;;;19.30;11.30;;;;;;;1.36;91.44;96208.35;107575;1269;68403;-65
2022/12/12 11:20:00;;;;;;;16.70;10.30;;;;;;;1.34;91.79;96209.84;107590;1261;59824;-65
2022/12/12 11:22:32;;;;;;;15.60;10.40;;;;;;;1.31;92.25;96211.38;107558;1269;59753;-65
2022/12/12 11:25:00;;;;;;;15.70;10.40;;;;;;;1.35;92.15;96216.64;107624;1269;72040;-64
2022/12/12 11:27:37;;;;;;;14.70;9.00;;;;;;;1.35;91.74;96214.06;107610;1269;69843;-65
2022/12/12 11:30:32;;;;;;;16.10;10.20;;;;;;;1.35;92.17;96212.38;107600;1266;69870;-64
2022/12/12 11:33:04;;;;;;;16.20;10.50;;;;;;;1.40;91.44;96209.50;107608;1266;59763;-65
2022/12/12 11:35:38;;;;;;;14.40;9.60;;;;;;;1.38;91.76;96212.72;107626;1269;59687;-65
2022/12/12 11:38:23;;;;;;;13.60;9.30;;;;;;;1.43;91.98;96211.60;107588;1265;71385;-65
2022/12/12 11:41:04;;;;;;;14.40;9.70;;;;;;;1.44;91.50;96213.09;107639;1269;69812;-65
2022/12/12 11:43:53;;;;;;;15.10;9.60;;;;;;;1.46;91.51;96210.05;107666;1266;68863;-65
2022/12/12 11:46:30;;;;;;;16.50;10.10;;;;;;;1.49;91.71;96209.02;107589;1269;59721;-65
2022/12/12 11:49:02;;;;;;;13.90;8.90;;;;;;;1.51;91.43;96209.08;107625;1269;59737;-65
2022/12/12 11:51:43;;;;;;;15.20;9.50;;;;;;;1.52;91.68;96212.06;107620;1269;70465;-65
2022/12/12 11:54:14;;;;;;;14.40;9.30;;;;;;;1.56;91.59;96210.55;107598;1269;68310;-66
2022/12/12 11:56:51;;;;;;;13.00;9.40;;;;;;;1.58;91.54;96212.13;107584;1266;69888;-66
2022/12/12 11:59:47;;;;;;;13.60;9.70;;;;;;;1.61;91.71;96213.02;107625;1269;59782;-66
2022/12/12 12:03:06;;;;;;;15.60;9.80;;;;;;;1.66;91.79;96218.55;107626;1269;59709;-66
2022/12/12 12:05:46;;;;;;;12.20;8.80;;;;;;;1.71;91.97;96219.64;107598;1269;71157;-65
2022/12/12 12:08:24;;;;;;;11.20;8.10;;;;;;;1.76;92.15;96218.14;107648;1269;69235;-65